Time;durP1;ratioP1;P1;durP2;ratioP2;P2;SDS_P1;SDS_P2;PMS_P1;PMS_P2;Temp;Humidity;BMP_temperature;BMP_pressure;BME280_temperature;BME280_humidity;BME280_pressure;Samples;Min_cycle;Max_cycle;Signal;HPM_P1;HPM_P2
2021/10/21 00:01:41;;;;;;;16.92;2.83;;;12.80;99.90;;;12.29;91.93;100393.34;4119318;28;20046;-70
2021/10/21 00:03:42;;;;;;;12.43;3.00;;;12.80;99.90;;;12.31;91.96;100409.03;4118201;28;20030;-70
2021/10/21 00:05:43;;;;;;;16.20;3.78;;;12.80;99.90;;;12.32;91.47;100418.63;4117920;28;20035;-70
2021/10/21 00:07:44;;;;;;;9.10;2.50;;;12.80;99.90;;;12.39;91.04;100417.75;4117916;28;20106;-70
2021/10/21 00:09:45;;;;;;;8.70;2.05;;;12.80;99.90;;;12.34;90.54;100419.25;4119483;28;20505;-70
2021/10/21 00:11:45;;;;;;;9.27;2.58;;;12.80;99.90;;;12.28;90.69;100422.59;4117804;28;20031;-70
2021/10/21 00:13:46;;;;;;;5.82;2.22;;;12.90;99.90;;;12.33;90.21;100452.00;4119213;28;20063;-70
2021/10/21 00:15:48;;;;;;;7.95;2.85;;;12.90;99.90;;;12.29;89.57;100454.19;4118987;28;20395;-70
2021/10/21 00:17:48;;;;;;;10.05;2.88;;;12.90;99.90;;;12.28;90.49;100454.34;4117874;28;20039;-70
2021/10/21 00:19:49;;;;;;;13.57;2.25;;;12.80;99.90;;;12.33;89.16;100470.53;4117958;28;20034;-70
2021/10/21 00:21:51;;;;;;;8.02;1.83;;;12.80;99.90;;;12.26;89.98;100469.56;4119099;28;20092;-70
2021/10/21 00:23:52;;;;;;;5.95;2.40;;;12.80;99.90;;;12.29;88.17;100477.16;4101687;29;20426;-70
2021/10/21 00:25:52;;;;;;;9.60;1.88;;;12.80;99.90;;;12.24;88.66;100474.22;4117678;28;20038;-70
2021/10/21 00:27:53;;;;;;;8.23;1.95;;;12.80;99.90;;;12.21;89.00;100485.97;4118871;28;20416;-70
2021/10/21 00:29:54;;;;;;;9.52;2.38;;;12.80;99.90;;;12.28;87.09;100488.72;4119070;28;20073;-70
2021/10/21 00:31:55;;;;;;;7.30;2.47;;;12.70;99.90;;;12.21;87.10;100489.41;4118766;28;20517;-70
2021/10/21 00:33:56;;;;;;;8.25;2.33;;;12.70;99.90;;;12.28;87.19;100502.78;4101679;29;20106;-70
2021/10/21 00:35:57;;;;;;;12.48;2.78;;;12.70;99.90;;;12.27;86.82;100500.31;4109332;28;20030;-70
2021/10/21 00:37:58;;;;;;;11.88;1.50;;;12.70;99.90;;;12.32;85.64;100512.03;4118858;28;20030;-70
2021/10/21 00:39:59;;;;;;;7.47;1.50;;;12.70;99.90;;;12.21;85.74;100505.28;4117520;28;20556;-70
2021/10/21 00:42:00;;;;;;;7.15;1.80;;;12.70;99.90;;;12.23;84.87;100518.34;4118424;28;20064;-70
2021/10/21 00:44:12;;;;;;;6.13;1.60;;;12.70;99.90;;;12.16;86.16;100512.91;4118953;28;20031;-70
2021/10/21 00:46:15;;;;;;;8.13;1.90;;;12.60;99.90;;;12.16;85.35;100530.59;4118869;28;20023;-70
2021/10/21 00:48:16;;;;;;;6.55;2.00;;;12.70;99.90;;;12.16;85.48;100523.50;4117419;28;20031;-70
2021/10/21 00:50:17;;;;;;;10.32;1.98;;;12.60;99.90;;;12.17;84.95;100527.78;4117717;28;20035;-70
2021/10/21 00:52:18;;;;;;;8.95;1.50;;;12.60;99.90;;;12.13;87.19;100546.78;4118712;28;20107;-70
2021/10/21 00:54:20;;;;;;;8.00;2.00;;;12.60;99.90;;;12.05;86.41;100550.31;4118681;28;20025;-70
2021/10/21 00:56:22;;;;;;;6.75;2.22;;;12.60;99.90;;;12.03;86.62;100547.03;4117087;28;20034;-70
2021/10/21 00:58:23;;;;;;;6.07;2.15;;;12.60;99.90;;;11.93;87.20;100553.47;4118671;28;20030;-70
2021/10/21 01:00:24;;;;;;;8.05;2.20;;;12.50;99.90;;;11.89;88.33;100558.25;4117421;28;20106;-70
2021/10/21 01:02:25;;;;;;;8.13;1.80;;;12.50;99.90;;;11.97;87.75;100554.78;4117365;28;20033;-70
2021/10/21 01:04:26;;;;;;;5.30;1.63;;;12.40;99.90;;;11.85;88.35;100559.63;4118399;28;20019;-70
2021/10/21 01:06:27;;;;;;;5.15;1.63;;;12.40;99.90;;;11.96;88.44;100575.13;4117423;28;20058;-70
2021/10/21 01:08:28;;;;;;;5.95;1.85;;;12.40;99.90;;;11.74;89.57;100578.44;4118531;28;20019;-70
2021/10/21 01:10:29;;;;;;;9.88;2.50;;;12.30;99.90;;;11.88;88.50;100577.78;4117225;28;20026;-70
2021/10/21 01:12:30;;;;;;;10.95;1.98;;;12.30;99.90;;;11.85;89.63;100580.75;4117096;28;20061;-70
2021/10/21 01:14:31;;;;;;;9.27;1.70;;;12.30;99.90;;;11.90;90.01;100583.72;4118553;28;20038;-70
2021/10/21 01:16:33;;;;;;;13.88;2.75;;;12.30;99.90;;;11.87;90.16;100581.41;4101190;29;20106;-70
2021/10/21 01:18:35;;;;;;;8.63;2.50;;;12.20;99.90;;;11.96;89.63;100590.97;4112049;28;20085;-70
2021/10/21 01:20:37;;;;;;;9.02;2.38;;;12.30;99.90;;;11.83;90.92;100582.72;4117151;28;20047;-70
2021/10/21 01:22:38;;;;;;;6.80;1.58;;;12.30;99.90;;;11.83;91.80;100588.00;4118349;28;20549;-70
2021/10/21 01:24:39;;;;;;;6.03;1.80;;;12.20;99.90;;;11.89;90.42;100592.63;4118336;28;20046;-70
2021/10/21 01:26:47;;;;;;;6.75;2.58;;;12.20;99.90;;;11.79;91.41;100604.38;4117031;28;20045;-70
2021/10/21 01:28:47;;;;;;;8.43;1.98;;;12.20;99.90;;;11.88;90.92;100593.66;4100887;28;20177;-71
2021/10/21 01:30:48;;;;;;;9.93;2.33;;;12.20;99.90;;;11.82;91.47;100611.97;4106283;28;20043;-70
2021/10/21 01:32:52;;;;;;;9.02;2.67;;;12.20;99.90;;;11.84;91.69;100615.28;4118198;28;20030;-70
2021/10/21 01:34:53;;;;;;;7.97;1.88;;;12.20;99.90;;;11.83;90.93;100617.09;4101006;28;20118;-70
2021/10/21 01:36:54;;;;;;;7.03;2.00;;;12.20;99.90;;;11.79;91.29;100628.16;4131165;28;20401;-70
2021/10/21 01:38:55;;;;;;;12.95;2.83;;;12.20;99.90;;;11.76;91.05;100633.78;4117051;28;20524;-70
2021/10/21 01:40:56;;;;;;;11.30;2.58;;;12.30;99.90;;;11.68;92.08;100644.34;4118180;28;20031;-70
2021/10/21 01:42:58;;;;;;;9.30;2.17;;;12.10;99.90;;;11.74;91.22;100641.88;4117808;28;20027;-70
2021/10/21 01:44:59;;;;;;;7.75;2.20;;;12.10;99.90;;;11.72;91.96;100643.03;4117951;28;20115;-70
2021/10/21 01:47:00;;;;;;;11.10;2.88;;;12.10;99.90;;;11.65;92.54;100642.81;4118194;28;20030;-70
2021/10/21 01:49:01;;;;;;;9.98;2.00;;;12.10;99.90;;;11.73;92.02;100653.44;4117988;28;20041;-70
2021/10/21 01:51:03;;;;;;;8.05;2.55;;;12.10;99.90;;;11.77;91.20;100654.75;4117808;28;20155;-70
2021/10/21 01:53:04;;;;;;;9.15;2.55;;;12.10;99.90;;;11.77;92.21;100665.31;4116093;28;20027;-70
2021/10/21 01:55:06;;;;;;;7.60;1.80;;;12.10;99.90;;;11.79;90.80;100667.81;4118023;28;20413;-70
2021/10/21 01:57:07;;;;;;;9.55;2.85;;;12.10;99.90;;;11.73;90.51;100674.59;4117730;28;20509;-70
2021/10/21 01:59:08;;;;;;;4.70;1.70;;;12.10;99.90;;;11.62;91.06;100675.69;4117887;28;20031;-70
2021/10/21 02:01:09;;;;;;;3.75;1.92;;;12.00;99.90;;;11.54;92.01;100669.56;4117674;28;20034;-70
2021/10/21 02:03:10;;;;;;;7.80;1.75;;;12.00;99.90;;;11.46;91.32;100661.66;4117936;28;20045;-70
2021/10/21 02:05:15;;;;;;;7.28;2.03;;;12.00;99.90;;;11.51;91.19;100680.47;4117862;28;20030;-70
2021/10/21 02:07:16;;;;;;;8.48;2.00;;;12.00;99.90;;;11.49;91.13;100679.81;4116556;28;20031;-70
2021/10/21 02:09:17;;;;;;;5.20;1.85;;;12.00;99.90;;;11.51;91.13;100677.84;4117557;28;20083;-70
2021/10/21 02:11:18;;;;;;;6.70;1.92;;;12.00;99.90;;;11.57;90.98;100691.22;4116325;28;20034;-70
2021/10/21 02:13:19;;;;;;;7.53;2.00;;;11.90;99.90;;;11.50;91.19;100698.13;4116575;28;20022;-70
2021/10/21 02:15:20;;;;;;;5.40;1.80;;;11.90;99.90;;;11.55;91.08;100695.00;4117632;28;20039;-70
2021/10/21 02:17:22;;;;;;;11.50;2.35;;;11.90;99.90;;;11.59;90.74;100699.78;4116281;28;20072;-70
2021/10/21 02:19:23;;;;;;;6.47;2.10;;;11.90;99.90;;;11.59;90.76;100707.72;4117277;28;20069;-70
2021/10/21 02:21:24;;;;;;;6.38;1.70;;;11.80;99.90;;;11.45;90.31;100707.53;4116337;28;20117;-70
2021/10/21 02:23:25;;;;;;;8.10;2.28;;;11.90;99.90;;;11.48;90.94;100704.56;4116401;28;20030;-70
2021/10/21 02:25:26;;;;;;;8.38;1.90;;;11.90;99.90;;;11.50;91.44;100710.50;4117451;28;20041;-70
2021/10/21 02:27:28;;;;;;;6.80;2.53;;;11.90;99.90;;;11.54;90.86;100715.31;4117374;28;20030;-70
2021/10/21 02:29:29;;;;;;;9.43;2.83;;;11.90;99.90;;;11.53;91.28;100715.47;4116364;28;20035;-70
2021/10/21 02:31:30;;;;;;;8.25;2.13;;;11.90;99.90;;;11.44;91.71;100717.28;4117412;28;20031;-70
2021/10/21 02:33:31;;;;;;;11.52;2.88;;;11.90;99.90;;;11.51;91.59;100723.56;4117470;28;20023;-70
2021/10/21 02:35:32;;;;;;;9.13;2.20;;;11.80;99.90;;;11.62;91.13;100728.53;4117514;28;20088;-70
2021/10/21 02:37:34;;;;;;;10.35;2.53;;;11.90;99.90;;;11.65;91.30;100738.78;4116363;28;20419;-70
2021/10/21 02:39:35;;;;;;;11.68;1.92;;;11.90;99.90;;;11.53;91.42;100736.59;4117400;28;20019;-70
2021/10/21 02:41:36;;;;;;;5.75;1.85;;;11.90;99.90;;;11.52;92.02;100738.44;4117236;28;20054;-70
2021/10/21 02:43:37;;;;;;;9.60;1.83;;;11.90;99.90;;;11.48;92.69;100737.09;4117489;28;20841;-70
2021/10/21 02:45:41;;;;;;;8.68;2.75;;;12.00;99.90;;;11.52;92.24;100743.72;4117621;28;20067;-70
2021/10/21 02:47:44;;;;;;;10.95;2.55;;;11.90;99.90;;;11.52;93.22;100742.91;4117608;28;20033;-70
2021/10/21 02:49:45;;;;;;;11.93;3.83;;;11.80;99.90;;;11.46;93.52;100735.63;4117201;28;20038;-70
2021/10/21 02:51:46;;;;;;;7.97;2.53;;;11.80;99.90;;;11.54;92.93;100736.44;4117312;28;20038;-70
2021/10/21 02:53:48;;;;;;;10.07;2.42;;;11.80;99.90;;;11.43;93.18;100730.66;4100204;29;20027;-70
2021/10/21 02:55:49;;;;;;;9.23;2.85;;;11.90;99.90;;;11.40;94.20;100745.00;4110893;28;20054;-70
2021/10/21 02:57:50;;;;;;;10.40;2.78;;;11.80;99.90;;;11.40;94.21;100744.19;4116982;28;20031;-70
2021/10/21 02:59:51;;;;;;;11.63;2.50;;;11.80;99.90;;;11.33;95.37;100737.88;4117253;28;20034;-70
2021/10/21 03:01:52;;;;;;;11.93;3.38;;;11.80;99.90;;;11.41;95.07;100740.56;4117285;28;20046;-70
2021/10/21 03:03:53;;;;;;;12.68;2.70;;;11.80;99.90;;;11.47;95.37;100742.53;4117685;28;20058;-70
2021/10/21 03:05:54;;;;;;;9.55;2.75;;;11.70;99.90;;;11.53;94.36;100739.25;4120025;28;20069;-70
2021/10/21 03:07:55;;;;;;;11.30;3.42;;;11.80;99.90;;;11.46;94.70;100746.19;4120016;28;20035;-70
2021/10/21 03:09:56;;;;;;;10.15;2.63;;;11.70;99.90;;;11.48;95.11;100744.19;4120099;28;20030;-70
2021/10/21 03:11:57;;;;;;;7.97;2.83;;;11.70;99.90;;;11.49;95.43;100748.50;4119737;28;20063;-70
2021/10/21 03:13:58;;;;;;;10.18;3.50;;;11.70;99.90;;;11.45;96.36;100757.72;4119884;28;20022;-70
2021/10/21 03:16:00;;;;;;;11.05;3.30;;;11.80;99.90;;;11.38;96.78;100760.19;4119981;28;20148;-70
2021/10/21 03:18:01;;;;;;;11.02;2.83;;;11.70;99.90;;;11.43;96.40;100762.34;4102689;28;20462;-70
2021/10/21 03:20:02;;;;;;;7.60;2.20;;;11.70;99.90;;;11.35;96.70;100762.34;4127984;28;20048;-70
2021/10/21 03:22:03;;;;;;;9.82;2.05;;;11.70;99.90;;;11.19;97.79;100768.38;4119881;28;20026;-70
2021/10/21 03:24:05;;;;;;;13.40;2.72;;;11.60;99.90;;;11.24;98.06;100768.72;4119839;28;20062;-70
2021/10/21 03:26:06;;;;;;;8.30;2.17;;;11.60;99.90;;;11.19;98.49;100768.38;4102584;29;20069;-70
2021/10/21 03:28:07;;;;;;;15.57;3.17;;;11.50;99.90;;;11.19;99.04;100772.81;4134728;28;20030;-70
2021/10/21 03:30:10;;;;;;;9.57;3.13;;;11.50;99.90;;;11.28;97.88;100785.06;4114373;28;20042;-70
2021/10/21 03:32:11;;;;;;;11.38;2.20;;;11.50;99.90;;;11.20;98.86;100785.06;4119703;28;20042;-70
2021/10/21 03:34:12;;;;;;;11.10;2.63;;;11.50;99.90;;;11.24;98.44;100786.38;4119766;28;20035;-70
2021/10/21 03:36:13;;;;;;;11.82;2.67;;;11.50;99.90;;;11.15;98.15;100789.97;4119889;28;20027;-70
2021/10/21 03:38:14;;;;;;;10.55;2.97;;;11.50;99.90;;;11.22;98.58;100788.34;4119619;28;20049;-70
2021/10/21 03:40:16;;;;;;;10.20;2.40;;;11.50;99.90;;;11.13;98.61;100791.94;4119517;28;20023;-70
2021/10/21 03:42:19;;;;;;;14.80;3.33;;;11.50;99.90;;;11.11;99.34;100797.38;4119306;28;20037;-70
2021/10/21 03:44:20;;;;;;;8.02;2.53;;;11.50;99.90;;;11.04;99.77;100794.56;4118378;28;20035;-70
2021/10/21 03:46:22;;;;;;;12.05;2.55;;;11.50;99.90;;;11.04;100.00;100801.63;4119510;28;20034;-70
2021/10/21 03:48:23;;;;;;;9.55;2.90;;;11.40;99.90;;;11.08;100.00;100805.59;4119344;28;20391;-70
2021/10/21 03:50:25;;;;;;;11.00;3.33;;;11.40;99.90;;;11.15;98.81;100808.44;4119494;28;20080;-71
2021/10/21 03:52:26;;;;;;;11.52;2.88;;;11.50;99.90;;;11.20;98.37;100816.75;4102372;28;20063;-70
2021/10/21 03:54:27;;;;;;;10.40;3.65;;;11.50;99.90;;;11.32;97.31;100818.91;4102137;29;20042;-70
2021/10/21 03:56:28;;;;;;;8.60;2.47;;;11.50;99.90;;;11.21;97.27;100818.38;4117421;28;20490;-70
2021/10/21 03:58:29;;;;;;;12.88;2.63;;;11.50;99.90;;;11.14;97.46;100820.81;4119486;28;20019;-70
2021/10/21 04:00:30;;;;;;;13.32;2.88;;;11.50;99.90;;;11.19;97.10;100820.34;4118241;28;20026;-70
2021/10/21 04:02:31;;;;;;;11.30;2.33;;;11.50;99.90;;;11.33;96.18;100822.38;4119304;28;20030;-70
2021/10/21 04:04:32;;;;;;;11.50;3.50;;;11.50;99.90;;;11.19;97.09;100825.63;4119187;28;20027;-70
2021/10/21 04:06:33;;;;;;;13.45;2.92;;;11.50;99.90;;;11.26;96.92;100831.94;4119352;28;20076;-70
2021/10/21 04:08:34;;;;;;;15.68;4.13;;;11.60;99.90;;;11.34;95.94;100831.97;4119299;28;20134;-70
2021/10/21 04:10:35;;;;;;;11.90;2.50;;;11.60;99.90;;;11.38;95.48;100825.41;4118007;28;20031;-70
2021/10/21 04:12:36;;;;;;;13.55;4.35;;;11.60;99.90;;;11.34;96.53;100834.63;4118843;28;20023;-70
2021/10/21 04:14:37;;;;;;;10.80;2.58;;;11.70;99.90;;;11.20;96.61;100828.09;4118721;28;20101;-70
2021/10/21 04:16:38;;;;;;;10.05;2.58;;;11.60;99.90;;;11.17;97.46;100825.78;4119225;28;20054;-70
2021/10/21 04:18:38;;;;;;;11.55;3.83;;;11.60;99.90;;;11.06;98.22;100837.44;4117877;28;20411;-70
2021/10/21 04:20:39;;;;;;;6.88;2.22;;;11.50;99.90;;;11.14;98.04;100844.56;4101948;28;20419;-70
2021/10/21 04:22:40;;;;;;;11.00;2.70;;;11.60;99.90;;;11.27;96.96;100844.16;4117965;28;20035;-70
2021/10/21 04:24:42;;;;;;;12.05;2.95;;;11.60;99.90;;;11.22;97.94;100851.72;4117910;28;20610;-70
2021/10/21 04:26:43;;;;;;;12.18;2.53;;;11.60;99.90;;;11.44;96.09;100856.47;4118820;28;20027;-70
2021/10/21 04:28:44;;;;;;;12.27;3.33;;;11.70;99.90;;;11.35;96.37;100857.41;4117612;28;20061;-70
2021/10/21 04:30:45;;;;;;;11.18;3.15;;;11.80;99.90;;;11.39;96.92;100858.72;4118799;28;20088;-70
2021/10/21 04:32:46;;;;;;;12.43;3.35;;;11.80;99.90;;;11.36;96.90;100862.53;4118891;28;20077;-71
2021/10/21 04:34:47;;;;;;;11.50;2.60;;;11.80;99.90;;;11.46;96.31;100865.03;4118876;28;20034;-70
2021/10/21 04:36:50;;;;;;;10.57;2.33;;;11.90;99.90;;;11.43;96.67;100871.47;4118716;28;20430;-70
2021/10/21 04:38:50;;;;;;;15.40;3.67;;;11.90;99.90;;;11.50;96.79;100880.41;4118938;28;20053;-70
2021/10/21 04:40:51;;;;;;;10.82;2.33;;;11.90;99.90;;;11.44;97.13;100877.59;4118815;28;20031;-70
2021/10/21 04:42:52;;;;;;;8.80;1.90;;;12.00;99.90;;;11.34;98.41;100892.72;4118483;28;20038;-70
2021/10/21 04:44:53;;;;;;;16.40;3.05;;;11.90;99.90;;;11.42;98.74;100876.91;4118583;28;20509;-70
2021/10/21 04:46:54;;;;;;;13.73;4.55;;;11.90;99.90;;;11.33;99.60;100881.31;4118824;28;20035;-70
2021/10/21 04:48:55;;;;;;;11.65;2.63;;;11.80;99.90;;;11.17;100.00;100878.59;4117571;28;20088;-70
2021/10/21 04:50:56;;;;;;;8.95;2.45;;;11.70;99.90;;;11.13;100.00;100871.97;4118582;28;20122;-70
2021/10/21 04:52:57;;;;;;;10.48;2.65;;;11.60;99.90;;;11.02;100.00;100874.88;4118506;28;20031;-70
2021/10/21 04:54:58;;;;;;;11.45;2.90;;;11.50;99.90;;;11.12;100.00;100872.94;4118705;28;20505;-70
2021/10/21 04:56:59;;;;;;;12.85;3.00;;;11.50;99.90;;;11.02;100.00;100877.53;4118430;28;20092;-70
2021/10/21 04:59:00;;;;;;;9.68;3.22;;;11.40;99.90;;;10.99;100.00;100881.28;4118638;28;20035;-70
2021/10/21 05:01:01;;;;;;;9.95;2.58;;;11.40;99.90;;;10.94;100.00;100880.94;4117414;28;20517;-70
2021/10/21 05:03:11;;;;;;;7.45;1.83;;;11.30;99.90;;;10.99;100.00;100883.91;4118626;28;20047;-71
2021/10/21 05:05:13;;;;;;;10.93;2.95;;;11.30;99.90;;;10.98;100.00;100874.38;4117452;28;20083;-70
2021/10/21 05:07:14;;;;;;;7.57;2.58;;;11.30;99.90;;;10.95;100.00;100882.59;4101338;29;20031;-70
2021/10/21 05:09:15;;;;;;;10.07;2.30;;;11.30;99.90;;;10.96;100.00;100881.59;4115823;28;20065;-70
2021/10/21 05:11:16;;;;;;;10.15;2.10;;;11.20;99.90;;;10.90;100.00;100878.75;4118270;28;20942;-70
2021/10/21 05:13:17;;;;;;;6.80;1.88;;;11.20;99.90;;;10.93;100.00;100883.75;4117343;28;20050;-70
2021/10/21 05:15:18;;;;;;;10.55;2.80;;;11.20;99.90;;;10.84;100.00;100887.31;4117176;28;20027;-71
2021/10/21 05:17:20;;;;;;;12.95;2.53;;;11.20;99.90;;;10.86;100.00;100882.69;4117140;28;20069;-70
2021/10/21 05:19:21;;;;;;;13.50;3.03;;;11.20;99.90;;;10.73;100.00;100883.06;4100871;29;20139;-70
2021/10/21 05:21:21;;;;;;;11.23;3.33;;;11.10;99.90;;;10.73;100.00;100884.88;4118365;28;20027;-70
2021/10/21 05:23:22;;;;;;;9.35;2.45;;;11.10;99.90;;;10.76;100.00;100884.56;4117172;28;20398;-70
2021/10/21 05:25:23;;;;;;;10.48;2.78;;;11.00;99.90;;;10.68;100.00;100879.25;4118173;28;20030;-70
2021/10/21 05:27:24;;;;;;;15.40;3.85;;;11.00;99.90;;;10.68;100.00;100880.09;4116952;28;20409;-70
2021/10/21 05:29:26;;;;;;;11.60;2.92;;;11.00;99.90;;;10.60;100.00;100877.38;4117953;28;20049;-70
2021/10/21 05:31:27;;;;;;;12.73;2.33;;;11.00;99.90;;;10.61;100.00;100870.28;4118052;28;20034;-70
2021/10/21 05:33:34;;;;;;;11.80;2.28;;;11.00;99.90;;;10.59;100.00;100865.16;4118067;28;20437;-70
2021/10/21 05:35:35;;;;;;;13.93;3.50;;;11.00;99.90;;;10.60;100.00;100872.13;4117954;28;20062;-71
2021/10/21 05:37:36;;;;;;;9.70;2.85;;;11.00;99.90;;;10.57;100.00;100871.59;4118154;28;20109;-70
2021/10/21 05:39:37;;;;;;;17.00;2.60;;;10.90;99.90;;;10.51;100.00;100870.41;4116865;28;20106;-71
2021/10/21 05:41:38;;;;;;;10.63;2.92;;;10.90;99.90;;;10.48;100.00;100868.84;4116756;28;20027;-70
2021/10/21 05:43:39;;;;;;;7.20;2.03;;;10.80;99.90;;;10.43;100.00;100865.84;4100385;28;20157;-70
2021/10/21 05:45:40;;;;;;;8.82;2.88;;;10.90;99.90;;;10.41;100.00;100870.47;4116781;28;20031;-71
2021/10/21 05:47:42;;;;;;;8.40;2.85;;;10.80;99.90;;;10.42;100.00;100864.19;4117684;28;20518;-70
2021/10/21 05:49:43;;;;;;;11.48;2.95;;;10.80;99.90;;;10.40;100.00;100860.88;4116402;28;20059;-71
2021/10/21 05:51:44;;;;;;;8.80;2.33;;;10.70;99.90;;;10.33;100.00;100874.84;4116049;28;20077;-71
2021/10/21 05:53:46;;;;;;;9.82;2.65;;;10.70;99.90;;;10.53;100.00;100865.78;4116663;28;20089;-71
2021/10/21 05:55:46;;;;;;;13.65;3.85;;;10.70;99.90;;;10.75;100.00;100869.75;4116404;28;20029;-71
2021/10/21 05:57:47;;;;;;;11.90;2.97;;;10.80;99.90;;;10.84;100.00;100867.00;4117345;28;20026;-71
2021/10/21 05:59:48;;;;;;;14.20;3.35;;;10.90;99.90;;;10.74;100.00;100879.47;4116405;28;20518;-70
2021/10/21 06:01:49;;;;;;;10.43;2.40;;;11.00;99.90;;;10.80;100.00;100872.75;4116706;28;20106;-71
2021/10/21 06:03:50;;;;;;;11.07;2.42;;;11.00;99.90;;;10.74;100.00;100874.19;4117855;28;20034;-71
2021/10/21 06:05:51;;;;;;;11.50;2.58;;;11.00;99.90;;;10.85;100.00;100870.47;4116574;28;20035;-70
2021/10/21 06:07:52;;;;;;;16.77;3.00;;;11.10;99.90;;;10.86;100.00;100872.97;4116455;28;20133;-70
2021/10/21 06:09:56;;;;;;;12.25;2.42;;;11.20;99.90;;;11.01;100.00;100871.41;4116607;28;20027;-71
2021/10/21 06:11:57;;;;;;;10.30;2.78;;;11.20;99.90;;;10.99;100.00;100873.34;4118091;28;20038;-70
2021/10/21 06:14:01;;;;;;;11.85;3.28;;;11.20;99.90;;;11.10;100.00;100880.22;4118759;28;20491;-71
2021/10/21 06:16:04;;;;;;;15.75;2.97;;;11.30;99.90;;;10.91;100.00;100839.00;4117179;28;20031;-71
2021/10/21 06:18:05;;;;;;;15.30;2.85;;;11.30;99.90;;;11.10;100.00;100875.75;4118662;28;20050;-71
2021/10/21 06:20:10;;;;;;;13.52;3.38;;;11.40;99.90;;;11.04;100.00;100873.75;4118362;28;20046;-70
2021/10/21 06:22:13;;;;;;;11.20;3.03;;;11.40;99.90;;;11.06;100.00;100874.41;4117576;28;20058;-71
2021/10/21 06:24:15;;;;;;;15.80;4.25;;;11.40;99.90;;;11.02;100.00;100875.69;4101479;28;20023;-70
2021/10/21 06:26:17;;;;;;;14.70;3.28;;;11.40;99.90;;;10.94;100.00;100880.09;4108831;28;20092;-70
2021/10/21 06:28:18;;;;;;;14.15;2.97;;;11.40;99.90;;;11.09;100.00;100878.53;4100945;29;20031;-69
2021/10/21 06:30:20;;;;;;;12.55;3.13;;;11.40;99.90;;;11.15;100.00;100867.34;4115458;28;20037;-70
2021/10/21 06:32:21;;;;;;;15.40;4.32;;;11.40;99.90;;;11.15;100.00;100872.63;4118321;28;20047;-69
2021/10/21 06:34:22;;;;;;;21.73;4.88;;;11.50;99.90;;;11.10;100.00;100869.66;4118024;28;20030;-69
2021/10/21 06:36:25;;;;;;;13.20;2.65;;;11.50;99.90;;;11.24;100.00;100873.50;4118484;28;20084;-69
2021/10/21 06:38:27;;;;;;;13.48;2.90;;;11.50;99.90;;;11.22;100.00;100859.66;4117732;28;20040;-69
2021/10/21 06:40:28;;;;;;;11.57;4.10;;;11.60;99.90;;;11.47;100.00;100866.69;4117244;28;20033;-69
2021/10/21 06:42:29;;;;;;;12.73;3.60;;;11.70;99.90;;;11.45;100.00;100869.50;4116582;28;20510;-69
2021/10/21 06:44:31;;;;;;;17.35;3.03;;;11.70;99.90;;;11.49;100.00;100876.13;4117012;28;20027;-70
2021/10/21 06:46:32;;;;;;;17.35;2.42;;;11.80;99.90;;;11.55;100.00;100864.09;4099787;28;20533;-69
2021/10/21 06:48:33;;;;;;;25.63;6.28;;;11.80;99.90;;;11.62;100.00;100871.22;4117077;28;20027;-69
2021/10/21 06:50:34;;;;;;;18.05;3.70;;;11.90;99.90;;;11.60;100.00;100869.72;4116679;28;20390;-69
2021/10/21 06:52:37;;;;;;;16.00;3.22;;;12.00;99.90;;;11.50;100.00;100871.66;4117144;28;20027;-69
2021/10/21 06:54:38;;;;;;;19.58;3.75;;;12.00;99.90;;;11.43;100.00;100870.66;4115834;28;20038;-69
2021/10/21 06:56:39;;;;;;;11.45;2.80;;;12.00;99.90;;;11.55;100.00;100879.94;4115653;28;20035;-69
2021/10/21 06:58:40;;;;;;;13.80;3.08;;;12.00;99.90;;;11.50;100.00;100869.84;4115917;28;20426;-69
2021/10/21 07:00:42;;;;;;;17.65;2.88;;;12.00;99.90;;;11.56;100.00;100871.00;4117139;28;20066;-69
2021/10/21 07:02:43;;;;;;;15.60;3.92;;;12.00;99.90;;;11.58;100.00;100877.81;4115667;28;20027;-69
2021/10/21 07:04:44;;;;;;;20.52;4.50;;;12.10;99.90;;;11.68;100.00;100879.50;4116143;28;20049;-69
2021/10/21 07:06:45;;;;;;;18.95;3.25;;;12.20;99.90;;;11.79;100.00;100879.25;4117247;28;20050;-69
2021/10/21 07:08:46;;;;;;;13.48;3.38;;;12.30;99.90;;;11.85;100.00;100876.78;4117061;28;20390;-69
2021/10/21 07:10:47;;;;;;;21.25;3.47;;;12.40;99.90;;;11.95;100.00;100882.75;4116867;28;20035;-69
2021/10/21 07:12:48;;;;;;;20.52;4.47;;;12.40;99.90;;;11.99;100.00;100873.50;4117024;28;20031;-69
2021/10/21 07:14:49;;;;;;;16.38;3.30;;;12.50;99.90;;;11.91;100.00;100870.03;4117062;28;20015;-69
2021/10/21 07:16:50;;;;;;;17.30;2.75;;;12.50;99.90;;;11.95;100.00;100885.38;4117055;28;20030;-69
2021/10/21 07:18:51;;;;;;;11.52;3.80;;;12.50;99.90;;;12.08;100.00;100882.28;4116969;28;20666;-69
2021/10/21 07:20:52;;;;;;;17.52;3.63;;;12.60;99.90;;;12.21;100.00;100888.75;4116975;28;20035;-69
2021/10/21 07:22:53;;;;;;;17.08;2.90;;;12.70;99.90;;;12.10;100.00;100881.13;4116955;28;20402;-69
2021/10/21 07:24:54;;;;;;;16.23;3.45;;;12.60;99.90;;;12.18;100.00;100889.06;4117170;28;20056;-69
2021/10/21 07:26:56;;;;;;;18.95;3.30;;;12.70;99.90;;;12.19;100.00;100888.09;4116649;28;20034;-69
2021/10/21 07:28:57;;;;;;;17.58;3.42;;;12.80;99.90;;;12.27;100.00;100895.22;4116996;28;20027;-69
2021/10/21 07:30:58;;;;;;;16.27;3.15;;;12.90;99.90;;;12.42;100.00;100896.25;4116863;28;20038;-69
2021/10/21 07:32:59;;;;;;;18.40;3.15;;;12.90;99.90;;;12.57;100.00;100899.06;4116893;28;20019;-69
2021/10/21 07:35:00;;;;;;;11.95;3.65;;;13.20;99.90;;;12.68;100.00;100901.38;4116843;28;20030;-69
2021/10/21 07:37:01;;;;;;;11.57;3.25;;;13.20;99.90;;;12.71;100.00;100895.75;4116962;28;20084;-69
2021/10/21 07:39:02;;;;;;;18.90;3.10;;;13.30;99.90;;;12.63;100.00;100903.69;4116984;28;20027;-69
2021/10/21 07:41:03;;;;;;;13.27;2.90;;;13.40;99.90;;;12.75;100.00;100899.72;4115446;28;20057;-69
2021/10/21 07:43:04;;;;;;;13.35;3.10;;;13.40;99.90;;;12.78;100.00;100891.44;4099646;28;20067;-69
2021/10/21 07:45:07;;;;;;;9.00;3.15;;;13.40;99.90;;;12.78;99.67;100897.53;4114895;28;20034;-69
2021/10/21 07:47:08;;;;;;;22.65;4.05;;;13.40;99.90;;;12.83;99.09;100899.72;4115633;28;20031;-69
2021/10/21 07:49:09;;;;;;;17.63;2.72;;;13.40;99.90;;;12.77;99.58;100895.91;4116707;28;20037;-69
2021/10/21 07:51:10;;;;;;;16.23;3.45;;;13.50;99.90;;;12.82;99.33;100908.63;4118740;28;20477;-69
2021/10/21 07:53:11;;;;;;;22.50;3.83;;;13.40;99.90;;;12.86;99.99;100907.31;4119211;28;20038;-69
2021/10/21 07:55:13;;;;;;;18.00;3.35;;;13.50;99.90;;;12.84;99.73;100905.84;4119386;28;20085;-69
2021/10/21 07:57:14;;;;;;;14.05;3.33;;;13.50;99.90;;;12.90;100.00;100921.06;4117847;28;20030;-69
2021/10/21 07:59:15;;;;;;;20.05;4.28;;;13.60;99.90;;;13.01;100.00;100918.88;4119458;28;20038;-69
2021/10/21 08:01:16;;;;;;;18.90;3.20;;;13.70;99.90;;;13.26;99.68;100911.78;4119150;28;20034;-69
2021/10/21 08:03:18;;;;;;;21.60;3.58;;;13.90;99.90;;;13.40;99.04;100903.13;4119286;28;20057;-69
2021/10/21 08:05:19;;;;;;;13.10;2.35;;;14.00;99.90;;;13.42;99.15;100916.19;4119393;28;20031;-69
2021/10/21 08:07:20;;;;;;;13.75;2.72;;;14.10;99.90;;;13.43;98.89;100908.06;4119093;28;20060;-69
2021/10/21 08:09:23;;;;;;;10.70;2.22;;;14.10;99.90;;;13.42;99.36;100906.41;4118983;28;20042;-69
2021/10/21 08:11:24;;;;;;;21.67;2.92;;;14.10;99.90;;;13.39;99.69;100906.75;4118808;28;20031;-69
2021/10/21 08:13:25;;;;;;;11.07;2.95;;;14.10;99.90;;;13.29;100.00;100920.19;4119080;28;20029;-69
2021/10/21 08:15:26;;;;;;;22.02;4.30;;;14.10;99.90;;;13.45;100.00;100923.78;4117765;28;20057;-69
2021/10/21 08:17:29;;;;;;;19.17;4.80;;;14.10;99.90;;;13.56;100.00;100916.28;4118875;28;20030;-69
2021/10/21 08:19:30;;;;;;;16.30;4.13;;;14.30;99.90;;;13.54;100.00;100910.34;4118916;28;20070;-69